createdAt,value
2024-04-30T00:00:12.758Z,26.03
2024-04-30T00:01:12.867Z,26.03
2024-04-30T00:02:12.807Z,26.03
2024-04-30T00:03:12.794Z,26.03
2024-04-30T00:04:12.887Z,26.03
2024-04-30T00:05:12.859Z,26.04
2024-04-30T00:06:12.838Z,26.03
2024-04-30T00:07:12.855Z,26.03
2024-04-30T00:08:12.861Z,26.03
2024-04-30T00:09:12.861Z,26.03
2024-04-30T00:10:12.904Z,26.03
2024-04-30T00:11:12.920Z,26.03
2024-04-30T00:12:12.878Z,26.03
2024-04-30T00:13:12.888Z,26.03
2024-04-30T00:14:12.886Z,26.03
2024-04-30T00:15:14.299Z,26.02
2024-04-30T00:16:12.934Z,26.03
2024-04-30T00:17:12.913Z,26.03
2024-04-30T00:18:12.888Z,26.03
2024-04-30T00:19:12.977Z,26.02
2024-04-30T00:20:13.022Z,26.02
2024-04-30T00:21:12.885Z,26.02
2024-04-30T00:22:12.921Z,26.02
2024-04-30T00:23:12.909Z,26.01
2024-04-30T00:24:12.884Z,26.01
2024-04-30T00:25:12.939Z,26.01
2024-04-30T00:26:12.901Z,26.01
2024-04-30T00:27:12.911Z,26.01
2024-04-30T00:28:12.917Z,26.01
2024-04-30T00:29:12.902Z,26.01
2024-04-30T00:30:12.898Z,26.01
2024-04-30T00:31:12.926Z,26.01
2024-04-30T00:32:12.943Z,26.01
2024-04-30T00:33:12.938Z,26.00
2024-04-30T00:34:12.943Z,26.00
2024-04-30T00:35:12.944Z,26.00
2024-04-30T00:36:12.937Z,26.00
2024-04-30T00:37:12.945Z,26.00
2024-04-30T00:38:12.910Z,25.99
2024-04-30T00:39:12.911Z,25.99
2024-04-30T00:40:12.957Z,25.99
2024-04-30T00:41:12.926Z,25.99
2024-04-30T00:42:12.940Z,25.99
2024-04-30T00:43:12.931Z,25.98
2024-04-30T00:44:12.942Z,25.98
2024-04-30T00:45:12.952Z,25.98
2024-04-30T00:46:12.946Z,25.98
2024-04-30T00:47:12.930Z,25.98
2024-04-30T00:48:12.971Z,25.98
2024-04-30T00:49:12.950Z,25.98
2024-04-30T00:50:12.933Z,25.98
2024-04-30T00:51:12.917Z,25.98
2024-04-30T00:52:12.911Z,25.98
2024-04-30T00:53:12.946Z,25.98
2024-04-30T00:54:12.921Z,25.97
2024-04-30T00:55:12.935Z,25.97
2024-04-30T00:56:12.930Z,25.97
2024-04-30T00:57:12.927Z,25.97
2024-04-30T00:58:12.984Z,25.98
2024-04-30T00:59:12.940Z,25.98
2024-04-30T01:00:12.962Z,25.97
2024-04-30T01:01:13.062Z,25.97
2024-04-30T01:02:13.006Z,25.97
2024-04-30T01:03:12.954Z,25.96
2024-04-30T01:04:12.960Z,25.96
2024-04-30T01:05:12.945Z,25.96
2024-04-30T01:06:12.941Z,25.96
2024-04-30T01:07:12.957Z,25.96
2024-04-30T01:08:12.951Z,25.95
2024-04-30T01:09:12.955Z,25.95
2024-04-30T01:10:13.003Z,25.96
2024-04-30T01:11:12.977Z,25.95
2024-04-30T01:12:12.987Z,25.95
2024-04-30T01:13:13.094Z,25.95
2024-04-30T01:14:12.978Z,25.95
2024-04-30T01:15:12.927Z,25.94
2024-04-30T01:16:12.942Z,25.94
2024-04-30T01:17:12.965Z,25.94
2024-04-30T01:18:12.993Z,25.94
2024-04-30T01:19:12.996Z,25.94
2024-04-30T01:20:12.963Z,25.94
2024-04-30T01:21:12.964Z,25.94
2024-04-30T01:22:12.982Z,25.94
2024-04-30T01:23:12.954Z,25.94
2024-04-30T01:24:12.969Z,25.94
2024-04-30T01:25:13.008Z,25.94
2024-04-30T01:26:13.005Z,25.94
2024-04-30T01:27:13.015Z,25.94
2024-04-30T01:28:13.021Z,25.93
2024-04-30T01:29:12.959Z,25.93
2024-04-30T01:30:12.986Z,25.93
2024-04-30T01:31:13.044Z,25.93
2024-04-30T01:32:12.990Z,25.92
2024-04-30T01:33:13.011Z,25.93
2024-04-30T01:34:13.024Z,25.93
2024-04-30T01:35:12.964Z,25.92
2024-04-30T01:36:13.020Z,25.91
2024-04-30T01:37:13.069Z,25.93
2024-04-30T01:38:12.984Z,25.91
2024-04-30T01:39:12.975Z,25.91
2024-04-30T01:40:13.005Z,25.92
2024-04-30T01:41:12.968Z,25.91
2024-04-30T01:42:12.990Z,25.91
2024-04-30T01:43:13.044Z,25.91
2024-04-30T01:44:12.997Z,25.91
2024-04-30T01:45:12.970Z,25.90
2024-04-30T01:46:13.001Z,25.91
2024-04-30T01:47:12.983Z,25.91
2024-04-30T01:48:13.097Z,25.90
2024-04-30T01:49:12.990Z,25.90
2024-04-30T01:50:13.047Z,25.90
2024-04-30T01:51:12.970Z,25.89
2024-04-30T01:52:13.000Z,25.90
2024-04-30T01:53:13.009Z,25.90
2024-04-30T01:54:13.027Z,25.89
2024-04-30T01:55:13.056Z,25.90
2024-04-30T01:56:12.975Z,25.90
2024-04-30T01:57:12.975Z,25.89
2024-04-30T01:58:13.018Z,25.89
2024-04-30T01:59:13.005Z,25.89
2024-04-30T02:00:13.006Z,25.88
2024-04-30T02:01:13.045Z,25.89
2024-04-30T02:02:13.069Z,25.88
2024-04-30T02:03:13.010Z,25.88
2024-04-30T02:04:13.003Z,25.89
2024-04-30T02:05:17.116Z,25.89
2024-04-30T02:06:14.000Z,25.88
2024-04-30T02:07:13.091Z,25.88
2024-04-30T02:08:13.055Z,25.88
2024-04-30T02:09:12.994Z,25.87
2024-04-30T02:10:13.039Z,25.88
2024-04-30T02:11:13.028Z,25.87
2024-04-30T02:12:13.040Z,25.88
2024-04-30T02:13:13.010Z,25.87
2024-04-30T02:14:13.005Z,25.87
2024-04-30T02:15:13.078Z,25.87
2024-04-30T02:16:13.034Z,25.87
2024-04-30T02:17:13.069Z,25.87
2024-04-30T02:18:13.025Z,25.87
2024-04-30T02:19:13.059Z,25.86
2024-04-30T02:20:13.050Z,25.86
2024-04-30T02:21:13.044Z,25.86
2024-04-30T02:22:13.076Z,25.87
2024-04-30T02:23:13.020Z,25.87
2024-04-30T02:24:13.009Z,25.86
2024-04-30T02:25:13.041Z,25.86
2024-04-30T02:26:13.010Z,25.86
2024-04-30T02:27:13.042Z,25.86
2024-04-30T02:28:13.069Z,25.85
2024-04-30T02:29:13.066Z,25.86
2024-04-30T02:30:13.106Z,25.85
2024-04-30T02:31:13.147Z,25.85
2024-04-30T02:32:13.215Z,25.85
2024-04-30T02:33:13.152Z,25.85
2024-04-30T02:34:13.155Z,25.85
2024-04-30T02:35:13.202Z,25.85
2024-04-30T02:36:13.185Z,25.85
2024-04-30T02:37:13.228Z,25.85
2024-04-30T02:38:13.221Z,25.85
2024-04-30T02:39:13.206Z,25.85
2024-04-30T02:40:13.263Z,25.84
2024-04-30T02:41:13.244Z,25.85
2024-04-30T02:42:13.267Z,25.84
2024-04-30T02:43:13.274Z,25.84
2024-04-30T02:44:13.298Z,25.83
2024-04-30T02:45:13.312Z,25.83
2024-04-30T02:46:13.352Z,25.83
2024-04-30T02:47:13.363Z,25.84
2024-04-30T02:48:13.310Z,25.83
2024-04-30T02:49:13.361Z,25.82
2024-04-30T02:50:13.350Z,25.82
2024-04-30T02:51:13.381Z,25.83
2024-04-30T02:52:13.361Z,25.82
2024-04-30T02:53:13.375Z,25.82
2024-04-30T02:54:13.409Z,25.82
2024-04-30T02:55:13.514Z,25.82
2024-04-30T02:56:13.465Z,25.83
2024-04-30T02:57:13.470Z,25.82
2024-04-30T02:58:13.527Z,25.82
2024-04-30T02:59:13.528Z,25.82
2024-04-30T03:00:13.512Z,25.82
2024-04-30T03:01:13.609Z,25.82
2024-04-30T03:02:13.650Z,25.81
2024-04-30T03:03:13.596Z,25.82
2024-04-30T03:04:13.701Z,25.81
2024-04-30T03:05:13.645Z,25.81
2024-04-30T03:06:13.653Z,25.81
2024-04-30T03:07:13.798Z,25.81
2024-04-30T03:08:13.695Z,25.81
2024-04-30T03:09:13.809Z,25.80
2024-04-30T03:10:13.716Z,25.81
2024-04-30T03:11:13.806Z,25.81
2024-04-30T03:12:13.777Z,25.80
2024-04-30T03:13:13.847Z,25.80
2024-04-30T03:14:13.825Z,25.80
2024-04-30T03:15:17.140Z,25.80
2024-04-30T03:16:13.859Z,25.80
2024-04-30T03:17:13.872Z,25.80
2024-04-30T03:18:13.901Z,25.80
2024-04-30T03:19:13.910Z,25.80
2024-04-30T03:20:13.851Z,25.80
2024-04-30T03:21:13.855Z,25.79
2024-04-30T03:22:13.894Z,25.79
2024-04-30T03:23:13.843Z,25.80
2024-04-30T03:24:13.839Z,25.79
2024-04-30T03:25:13.891Z,25.79
2024-04-30T03:26:13.831Z,25.78
2024-04-30T03:27:13.841Z,25.79
2024-04-30T03:28:13.862Z,25.78
2024-04-30T03:29:13.877Z,25.79
2024-04-30T03:30:13.824Z,25.78
2024-04-30T03:31:13.875Z,25.78
2024-04-30T03:32:13.837Z,25.78
2024-04-30T03:33:13.923Z,25.77
2024-04-30T03:34:13.871Z,25.77
2024-04-30T03:35:13.913Z,25.78
2024-04-30T03:36:13.854Z,25.78
2024-04-30T03:37:13.938Z,25.78
2024-04-30T03:38:13.898Z,25.78
2024-04-30T03:39:13.846Z,25.77
2024-04-30T03:40:13.979Z,25.77
2024-04-30T03:41:13.858Z,25.77
2024-04-30T03:42:13.871Z,25.77
2024-04-30T03:43:13.952Z,25.77
2024-04-30T03:44:13.858Z,25.76
2024-04-30T03:45:13.888Z,25.77
2024-04-30T03:46:14.125Z,25.76
2024-04-30T03:47:13.883Z,25.76
2024-04-30T03:48:13.901Z,25.76
2024-04-30T03:49:13.917Z,25.77
2024-04-30T03:50:13.871Z,25.76
2024-04-30T03:51:13.878Z,25.76
2024-04-30T03:52:13.917Z,25.76
2024-04-30T03:53:13.874Z,25.76
2024-04-30T03:54:13.891Z,25.76
2024-04-30T03:55:13.885Z,25.76
2024-04-30T03:56:13.861Z,25.76
2024-04-30T03:57:13.864Z,25.76
2024-04-30T03:58:13.902Z,25.76
2024-04-30T03:59:13.868Z,25.76
2024-04-30T04:00:13.853Z,25.76
2024-04-30T04:01:13.880Z,25.76
2024-04-30T04:02:13.877Z,25.76
2024-04-30T04:03:13.951Z,25.76
2024-04-30T04:04:13.994Z,25.75
2024-04-30T04:05:13.917Z,25.75
2024-04-30T04:06:17.020Z,25.74
2024-04-30T04:07:13.917Z,25.73
2024-04-30T04:08:13.884Z,25.72
2024-04-30T04:09:13.890Z,25.70
2024-04-30T04:10:13.962Z,25.70
2024-04-30T04:11:13.906Z,25.69
2024-04-30T04:12:13.917Z,25.67
2024-04-30T04:13:13.915Z,25.67
2024-04-30T04:14:13.890Z,25.65
2024-04-30T04:15:13.893Z,25.64
2024-04-30T04:16:13.973Z,25.64
2024-04-30T04:17:13.901Z,25.62
2024-04-30T04:18:13.948Z,25.63
2024-04-30T04:19:13.972Z,25.63
2024-04-30T04:20:13.920Z,25.64
2024-04-30T04:21:18.232Z,25.64
2024-04-30T04:22:26.086Z,25.62
2024-04-30T04:23:26.051Z,25.63
2024-04-30T04:24:26.048Z,25.63
2024-04-30T04:25:26.064Z,25.61
2024-04-30T04:26:26.056Z,25.61
2024-04-30T04:27:26.055Z,25.62
2024-04-30T04:28:26.096Z,25.63
2024-04-30T04:29:26.024Z,25.62
2024-04-30T04:30:26.082Z,25.60
2024-04-30T04:31:33.466Z,25.57
2024-04-30T04:32:33.366Z,25.59
2024-04-30T04:33:33.261Z,25.60
2024-04-30T04:34:33.421Z,25.61
2024-04-30T04:35:33.320Z,25.63
2024-04-30T04:36:33.283Z,25.63
2024-04-30T04:37:33.347Z,25.64
2024-04-30T04:38:33.302Z,25.64
2024-04-30T04:39:33.310Z,25.65
2024-04-30T04:40:33.399Z,25.66
2024-04-30T04:41:33.383Z,25.68
2024-04-30T04:42:33.430Z,25.70
2024-04-30T04:43:33.516Z,25.71
2024-04-30T04:44:33.491Z,25.73
2024-04-30T04:45:33.597Z,25.75
2024-04-30T04:46:33.624Z,25.78
2024-04-30T04:47:33.578Z,25.82
2024-04-30T04:48:33.762Z,25.85
2024-04-30T04:49:33.661Z,25.91
2024-04-30T04:50:33.670Z,25.96
2024-04-30T04:51:33.743Z,25.99
2024-04-30T04:52:33.887Z,25.99
2024-04-30T04:53:33.848Z,25.98
2024-04-30T04:54:33.952Z,25.96
2024-04-30T04:55:34.008Z,25.95
2024-04-30T04:56:33.941Z,25.95
2024-04-30T04:57:33.948Z,25.94
2024-04-30T04:58:34.080Z,25.94
2024-04-30T04:59:33.995Z,25.96
2024-04-30T05:00:33.991Z,25.99
2024-04-30T05:01:34.002Z,26.07
2024-04-30T05:02:34.025Z,26.14
2024-04-30T05:03:34.105Z,26.22
2024-04-30T05:04:34.039Z,26.34
2024-04-30T05:05:34.040Z,26.53
2024-04-30T05:06:34.113Z,26.88
2024-04-30T05:07:34.157Z,27.33
2024-04-30T05:08:34.229Z,27.74
2024-04-30T05:09:34.237Z,27.75
2024-04-30T05:10:34.305Z,27.52
2024-04-30T05:11:34.296Z,27.29
2024-04-30T05:12:34.250Z,27.16
2024-04-30T05:13:34.401Z,27.11
2024-04-30T05:14:34.312Z,27.04
2024-04-30T05:15:34.329Z,26.97
2024-04-30T05:16:34.489Z,26.93
2024-04-30T05:17:34.462Z,26.87
2024-04-30T05:18:34.425Z,26.85
2024-04-30T05:19:34.506Z,26.82
2024-04-30T05:20:34.526Z,26.81
2024-04-30T05:21:34.586Z,26.79
2024-04-30T05:22:34.820Z,26.78
2024-04-30T05:23:34.669Z,26.78
2024-04-30T05:24:34.717Z,26.79
2024-04-30T05:25:34.832Z,26.79
2024-04-30T05:26:34.782Z,26.81
2024-04-30T05:27:34.825Z,26.83
2024-04-30T05:28:34.955Z,26.84
2024-04-30T05:29:34.845Z,26.84
2024-04-30T05:30:34.894Z,26.85
2024-04-30T05:31:35.032Z,26.86
2024-04-30T05:32:35.033Z,26.86
2024-04-30T05:33:35.112Z,26.86
2024-04-30T05:34:35.169Z,26.82
2024-04-30T05:35:35.067Z,26.61
2024-04-30T05:36:35.123Z,26.59
2024-04-30T05:37:35.240Z,26.38
2024-04-30T05:38:35.239Z,26.26
2024-04-30T05:39:35.288Z,26.06
2024-04-30T05:40:35.332Z,26.00
2024-04-30T05:41:35.332Z,25.96
2024-04-30T05:42:35.338Z,25.84
2024-04-30T05:43:35.377Z,25.72
2024-04-30T05:44:35.432Z,25.79
2024-04-30T05:45:35.470Z,25.81
2024-04-30T05:46:35.637Z,25.81
2024-04-30T05:47:35.529Z,25.72
2024-04-30T05:48:35.545Z,25.78
2024-04-30T05:49:35.687Z,25.74
2024-04-30T05:50:35.657Z,25.60
2024-04-30T05:51:35.957Z,25.46
2024-04-30T05:52:36.051Z,25.31
2024-04-30T05:53:35.809Z,25.19
2024-04-30T05:54:35.880Z,25.07
2024-04-30T05:55:35.968Z,25.04
2024-04-30T05:56:35.954Z,25.07
2024-04-30T05:57:35.910Z,25.15
2024-04-30T05:58:36.104Z,25.24
2024-04-30T05:59:35.969Z,25.31
2024-04-30T06:00:36.032Z,25.38
2024-04-30T06:01:36.521Z,25.37
2024-04-30T06:02:36.154Z,25.43
2024-04-30T06:03:36.246Z,25.49
2024-04-30T06:04:36.331Z,25.40
2024-04-30T06:05:36.390Z,25.25
2024-04-30T06:06:36.378Z,25.29
2024-04-30T06:07:36.572Z,25.24
2024-04-30T06:08:39.992Z,25.27
2024-04-30T06:09:36.521Z,25.32
2024-04-30T06:10:36.560Z,25.33
2024-04-30T06:11:36.561Z,25.23
2024-04-30T06:12:36.518Z,25.06
2024-04-30T06:13:37.126Z,25.04
2024-04-30T06:14:36.519Z,25.06
2024-04-30T06:15:36.532Z,25.04
2024-04-30T06:16:36.560Z,25.02
2024-04-30T06:17:36.554Z,24.90
2024-04-30T06:18:36.528Z,24.85
2024-04-30T06:19:36.723Z,24.89
2024-04-30T06:20:36.525Z,24.96
2024-04-30T06:21:38.653Z,24.98
2024-04-30T06:22:36.580Z,24.91
2024-04-30T06:23:37.010Z,24.77
2024-04-30T06:24:36.538Z,24.65
2024-04-30T06:25:36.730Z,24.54
2024-04-30T06:26:36.967Z,24.50
2024-04-30T06:27:36.569Z,24.52
2024-04-30T06:28:36.585Z,24.57
2024-04-30T06:29:36.544Z,24.60
2024-04-30T06:30:36.551Z,24.47
2024-04-30T06:31:37.069Z,24.35
2024-04-30T06:32:36.584Z,24.32
2024-04-30T06:33:36.674Z,24.32
2024-04-30T06:34:36.582Z,24.31
2024-04-30T06:35:36.561Z,24.23
2024-04-30T06:36:36.632Z,24.25
2024-04-30T06:37:36.720Z,24.32
2024-04-30T06:38:36.557Z,24.41
2024-04-30T06:39:36.546Z,24.53
2024-04-30T06:40:36.696Z,24.59
2024-04-30T06:41:36.978Z,24.67
2024-04-30T06:42:36.559Z,24.74
2024-04-30T06:43:36.641Z,24.85
2024-04-30T06:44:36.568Z,24.94
2024-04-30T06:45:36.568Z,25.03
2024-04-30T06:46:36.684Z,25.12
2024-04-30T06:47:36.701Z,25.20
2024-04-30T06:48:36.637Z,25.29
2024-04-30T06:49:36.579Z,25.37
2024-04-30T06:50:36.559Z,25.47
2024-04-30T06:51:36.634Z,25.52
2024-04-30T06:52:36.626Z,25.60
2024-04-30T06:53:36.527Z,25.66
2024-04-30T06:54:36.577Z,25.72
2024-04-30T06:55:36.625Z,25.77
2024-04-30T06:56:36.965Z,25.81
2024-04-30T06:57:36.960Z,25.86
2024-04-30T06:58:36.704Z,25.92
2024-04-30T06:59:37.009Z,25.96
2024-04-30T07:00:36.580Z,26.01
2024-04-30T07:01:36.666Z,26.05
2024-04-30T07:02:36.996Z,26.10
2024-04-30T07:03:36.575Z,26.15
2024-04-30T07:04:36.636Z,26.17
2024-04-30T07:05:36.621Z,26.20
2024-04-30T07:06:36.594Z,26.23
2024-04-30T07:07:36.663Z,26.26
2024-04-30T07:08:36.601Z,26.30
2024-04-30T07:09:36.642Z,26.33
2024-04-30T07:10:36.696Z,26.37
2024-04-30T07:11:36.704Z,26.41
2024-04-30T07:12:36.993Z,26.42
2024-04-30T07:13:36.927Z,26.44
2024-04-30T07:14:36.848Z,26.46
2024-04-30T07:15:36.879Z,26.48
2024-04-30T07:16:37.574Z,26.49
2024-04-30T07:17:37.165Z,26.51
2024-04-30T07:18:38.581Z,26.53
2024-04-30T07:19:37.411Z,26.56
2024-04-30T07:20:37.123Z,26.57
2024-04-30T07:21:37.144Z,26.61
2024-04-30T07:22:37.320Z,26.65
2024-04-30T07:23:37.525Z,26.66
2024-04-30T07:24:37.513Z,26.68
2024-04-30T07:25:37.418Z,26.69
2024-04-30T07:26:37.338Z,26.72
2024-04-30T07:27:37.386Z,26.74
2024-04-30T07:28:37.478Z,26.76
2024-04-30T07:29:37.512Z,26.76
2024-04-30T07:30:37.490Z,26.78
2024-04-30T07:31:40.441Z,26.85
2024-04-30T07:32:37.623Z,26.95
2024-04-30T07:33:37.607Z,27.00
2024-04-30T07:34:38.080Z,27.07
2024-04-30T07:35:37.528Z,27.11
2024-04-30T07:36:37.552Z,27.12
2024-04-30T07:37:37.709Z,27.15
2024-04-30T07:38:37.529Z,27.17
2024-04-30T07:39:37.642Z,27.23
2024-04-30T07:40:38.099Z,27.27
2024-04-30T07:41:37.526Z,27.32
2024-04-30T07:42:37.556Z,27.34
2024-04-30T07:43:37.670Z,27.39
2024-04-30T07:44:37.593Z,27.41
2024-04-30T07:45:38.002Z,27.41
2024-04-30T07:46:37.582Z,27.42
2024-04-30T07:47:37.632Z,27.45
2024-04-30T07:48:37.546Z,27.47
2024-04-30T07:49:37.780Z,27.49
2024-04-30T07:50:38.063Z,27.51
2024-04-30T07:51:37.538Z,27.51
2024-04-30T07:52:38.147Z,27.53
2024-04-30T07:53:37.544Z,27.54
2024-04-30T07:54:37.576Z,27.53
2024-04-30T07:55:37.595Z,27.53
2024-04-30T07:56:37.559Z,27.52
2024-04-30T07:57:38.009Z,27.48
2024-04-30T07:58:37.682Z,27.45
2024-04-30T07:59:37.603Z,27.44
2024-04-30T08:00:37.590Z,27.43
2024-04-30T08:01:37.610Z,27.42
2024-04-30T08:02:37.679Z,27.40
2024-04-30T08:03:37.653Z,27.39
2024-04-30T08:04:37.756Z,27.36
2024-04-30T08:05:42.832Z,27.36
2024-04-30T08:06:38.571Z,27.37
2024-04-30T08:07:37.665Z,27.41
2024-04-30T08:08:38.063Z,27.41
2024-04-30T08:09:37.578Z,27.41
2024-04-30T08:10:38.653Z,27.42
2024-04-30T08:11:37.604Z,27.41
2024-04-30T08:12:37.559Z,27.42
2024-04-30T08:13:37.651Z,27.43
2024-04-30T08:14:37.607Z,27.43
2024-04-30T08:15:38.502Z,27.45
2024-04-30T08:16:38.091Z,27.45
2024-04-30T08:17:37.759Z,27.47
2024-04-30T08:18:37.698Z,27.49
2024-04-30T08:19:38.183Z,27.50
2024-04-30T08:20:38.022Z,27.53
2024-04-30T08:21:37.935Z,27.56
2024-04-30T08:22:38.007Z,27.58
2024-04-30T08:23:37.981Z,27.61
2024-04-30T08:24:38.044Z,27.63
2024-04-30T08:25:38.518Z,27.64
2024-04-30T08:26:38.161Z,27.65
2024-04-30T08:27:38.207Z,27.62
2024-04-30T08:28:38.365Z,27.60
2024-04-30T08:29:38.382Z,27.57
2024-04-30T08:30:38.546Z,27.55
2024-04-30T08:31:38.585Z,27.56
2024-04-30T08:32:38.571Z,27.55
2024-04-30T08:33:38.744Z,27.57
2024-04-30T08:34:39.580Z,27.62
2024-04-30T08:35:38.907Z,27.61
2024-04-30T08:36:38.849Z,27.59
2024-04-30T08:37:47.475Z,27.58
2024-04-30T08:38:39.900Z,27.58
2024-04-30T08:39:39.079Z,27.57
2024-04-30T08:40:38.945Z,27.58
2024-04-30T08:41:38.923Z,27.60
2024-04-30T08:42:38.886Z,27.59
2024-04-30T08:43:38.917Z,27.59
2024-04-30T08:44:38.869Z,27.61
2024-04-30T08:45:39.533Z,27.60
2024-04-30T08:46:39.082Z,27.61
2024-04-30T08:47:39.071Z,27.64
2024-04-30T08:48:41.017Z,27.66
2024-04-30T08:49:46.786Z,27.66
2024-04-30T08:50:40.194Z,27.67
2024-04-30T08:51:39.199Z,27.68
2024-04-30T08:52:39.189Z,27.69
2024-04-30T08:53:39.091Z,27.68
2024-04-30T08:54:40.431Z,27.69
2024-04-30T08:55:39.183Z,27.72
2024-04-30T08:56:39.183Z,27.74
2024-04-30T08:57:40.011Z,27.74
2024-04-30T08:58:39.199Z,27.76
2024-04-30T08:59:39.561Z,27.81
2024-04-30T09:00:46.778Z,27.80
2024-04-30T09:01:46.835Z,27.81
2024-04-30T09:02:48.829Z,27.81
2024-04-30T09:03:46.774Z,27.80
2024-04-30T09:04:46.857Z,27.81
2024-04-30T09:05:47.371Z,27.78
2024-04-30T09:06:46.779Z,27.77
2024-04-30T09:07:46.795Z,27.80
2024-04-30T09:08:48.930Z,27.82
2024-04-30T09:09:48.697Z,27.83
2024-04-30T09:10:47.046Z,27.83
2024-04-30T09:11:47.230Z,27.82
2024-04-30T09:12:47.083Z,27.82
2024-04-30T09:13:47.176Z,27.83
2024-04-30T09:14:47.137Z,27.85
2024-04-30T09:15:47.158Z,27.88
2024-04-30T09:16:47.406Z,27.90
2024-04-30T09:17:47.318Z,27.92
2024-04-30T09:18:47.226Z,27.94
2024-04-30T09:19:47.304Z,27.95
2024-04-30T09:20:47.349Z,27.95
2024-04-30T09:21:48.257Z,27.95
2024-04-30T09:22:47.467Z,27.96
2024-04-30T09:23:47.351Z,27.97
2024-04-30T09:24:47.516Z,27.95
2024-04-30T09:25:47.463Z,27.95
2024-04-30T09:26:47.513Z,27.95
2024-04-30T09:27:47.499Z,27.94
2024-04-30T09:28:47.511Z,27.94
2024-04-30T09:29:47.546Z,27.93
2024-04-30T09:30:47.547Z,27.93
2024-04-30T09:31:47.637Z,27.92
2024-04-30T09:32:47.727Z,27.92
2024-04-30T09:33:47.678Z,27.92
2024-04-30T09:34:47.743Z,27.92
2024-04-30T09:35:47.774Z,27.92
2024-04-30T09:36:47.760Z,27.91
2024-04-30T09:37:47.839Z,27.90
2024-04-30T09:38:47.903Z,27.90
2024-04-30T09:39:48.016Z,27.90
2024-04-30T09:40:47.924Z,27.90
2024-04-30T09:41:47.996Z,27.91
2024-04-30T09:42:48.003Z,27.89
2024-04-30T09:43:48.082Z,27.90
2024-04-30T09:44:48.051Z,27.90
2024-04-30T09:45:48.139Z,27.90
2024-04-30T09:46:48.307Z,27.89
2024-04-30T09:47:48.414Z,27.89
2024-04-30T09:48:48.234Z,27.89
2024-04-30T09:49:48.406Z,27.88
2024-04-30T09:50:48.420Z,27.88
2024-04-30T09:51:48.374Z,27.88
2024-04-30T09:52:48.452Z,27.88
2024-04-30T09:53:48.488Z,27.87
2024-04-30T09:54:48.489Z,27.87
2024-04-30T09:55:48.555Z,27.87
2024-04-30T09:56:48.589Z,27.86
2024-04-30T09:57:48.628Z,27.85
2024-04-30T09:58:48.699Z,27.85
2024-04-30T09:59:48.749Z,27.86
2024-04-30T10:00:48.698Z,27.85
2024-04-30T10:01:48.822Z,27.85
2024-04-30T10:02:48.840Z,27.84
2024-04-30T10:03:48.828Z,27.85
2024-04-30T10:04:48.870Z,27.85
2024-04-30T10:05:48.908Z,27.85
2024-04-30T10:06:52.092Z,27.84
2024-04-30T10:07:49.044Z,27.84
2024-04-30T10:08:48.894Z,27.84
2024-04-30T10:09:48.874Z,27.84
2024-04-30T10:10:49.014Z,27.84
2024-04-30T10:11:48.906Z,27.85
2024-04-30T10:12:48.920Z,27.84
2024-04-30T10:13:48.921Z,27.85
2024-04-30T10:14:48.916Z,27.85
2024-04-30T10:15:48.901Z,27.86
2024-04-30T10:16:49.455Z,27.86
2024-04-30T10:17:48.914Z,27.86
2024-04-30T10:18:48.916Z,27.86
2024-04-30T10:19:49.003Z,27.86
2024-04-30T10:20:48.905Z,27.87
2024-04-30T10:21:49.144Z,27.87
2024-04-30T10:22:48.955Z,27.87
2024-04-30T10:23:48.910Z,27.87
2024-04-30T10:24:48.926Z,27.87
2024-04-30T10:25:48.978Z,27.87
2024-04-30T10:26:48.916Z,27.88
2024-04-30T10:27:48.947Z,27.88
2024-04-30T10:28:48.998Z,27.88
2024-04-30T10:29:48.966Z,27.88
2024-04-30T10:30:48.917Z,27.88
2024-04-30T10:31:49.407Z,27.88
2024-04-30T10:32:48.989Z,27.88
2024-04-30T10:33:49.072Z,27.88
2024-04-30T10:34:48.947Z,27.88
2024-04-30T10:35:50.421Z,27.88
2024-04-30T10:36:48.956Z,27.87
2024-04-30T10:37:48.941Z,27.88
2024-04-30T10:38:48.914Z,27.88
2024-04-30T10:39:48.992Z,27.87
2024-04-30T10:40:48.969Z,27.87
2024-04-30T10:41:48.943Z,27.88
2024-04-30T10:42:48.941Z,27.87
2024-04-30T10:43:49.009Z,27.88
2024-04-30T10:44:48.986Z,27.88
2024-04-30T10:45:48.949Z,27.88
2024-04-30T10:46:48.972Z,27.88
2024-04-30T10:47:49.523Z,27.89
2024-04-30T10:48:48.983Z,27.88
2024-04-30T10:49:51.128Z,27.88
2024-04-30T10:50:49.325Z,27.89
2024-04-30T10:51:48.964Z,27.89
2024-04-30T10:52:48.992Z,27.89
2024-04-30T10:53:49.028Z,27.90
2024-04-30T10:54:49.120Z,27.89
2024-04-30T10:55:49.475Z,27.89
2024-04-30T10:56:49.127Z,27.90
2024-04-30T10:57:49.418Z,27.90
2024-04-30T10:58:49.203Z,27.90
2024-04-30T10:59:49.224Z,27.89
2024-04-30T11:00:49.323Z,27.90
2024-04-30T11:01:49.490Z,27.90
2024-04-30T11:02:50.724Z,27.89
2024-04-30T11:03:49.386Z,27.89
2024-04-30T11:04:49.490Z,27.88
2024-04-30T11:05:49.435Z,27.89
2024-04-30T11:06:49.626Z,27.90
2024-04-30T11:07:49.510Z,27.89
2024-04-30T11:08:49.548Z,27.89
2024-04-30T11:09:49.627Z,27.89
2024-04-30T11:10:49.714Z,27.89
2024-04-30T11:11:50.243Z,27.90
2024-04-30T11:12:49.984Z,27.90
2024-04-30T11:13:49.734Z,27.90
2024-04-30T11:14:49.729Z,27.90
2024-04-30T11:15:59.421Z,27.90
2024-04-30T11:16:50.795Z,27.90
2024-04-30T11:17:49.902Z,27.90
2024-04-30T11:18:49.795Z,27.90
2024-04-30T11:19:50.090Z,27.89
2024-04-30T11:20:49.803Z,27.89
2024-04-30T11:21:49.774Z,27.88
2024-04-30T11:22:49.846Z,27.88
2024-04-30T11:23:49.784Z,27.87
2024-04-30T11:24:49.778Z,27.87
2024-04-30T11:25:49.856Z,27.86
2024-04-30T11:26:50.941Z,27.86
2024-04-30T11:27:49.784Z,27.85
2024-04-30T11:29:03.679Z,27.85
2024-04-30T11:29:50.859Z,27.84
2024-04-30T11:30:49.807Z,27.84
2024-04-30T11:31:49.819Z,27.84
2024-04-30T11:32:49.902Z,27.83
2024-04-30T11:33:49.805Z,27.83
2024-04-30T11:34:49.898Z,27.82
2024-04-30T11:35:49.874Z,27.82
2024-04-30T11:36:49.803Z,27.82
2024-04-30T11:37:49.926Z,27.82
2024-04-30T11:38:49.858Z,27.82
2024-04-30T11:39:49.780Z,27.82
2024-04-30T11:40:49.881Z,27.81
2024-04-30T11:41:59.864Z,27.81
2024-04-30T11:42:50.835Z,27.80
2024-04-30T11:43:49.877Z,27.80
2024-04-30T11:44:49.809Z,27.81
2024-04-30T11:45:49.811Z,27.80
2024-04-30T11:46:49.798Z,27.80
2024-04-30T11:47:49.911Z,27.79
2024-04-30T11:48:49.863Z,27.79
2024-04-30T11:49:49.874Z,27.79
2024-04-30T11:50:49.811Z,27.78
2024-04-30T11:51:49.808Z,27.78
2024-04-30T11:52:50.070Z,27.78
2024-04-30T11:53:49.824Z,27.78
2024-04-30T11:54:49.804Z,27.79
2024-04-30T11:55:49.864Z,27.79
2024-04-30T11:56:49.968Z,27.78
2024-04-30T11:57:49.846Z,27.79
2024-04-30T11:58:49.905Z,27.79
2024-04-30T11:59:49.940Z,27.79
2024-04-30T12:00:50.025Z,27.79
2024-04-30T12:01:50.161Z,27.80
2024-04-30T12:02:50.087Z,27.80
2024-04-30T12:03:50.136Z,27.80
2024-04-30T12:04:50.371Z,27.80
2024-04-30T12:05:50.275Z,27.79
2024-04-30T12:06:50.275Z,27.80
2024-04-30T12:07:50.391Z,27.79
2024-04-30T12:08:50.335Z,27.79
2024-04-30T12:09:50.368Z,27.79
2024-04-30T12:10:50.557Z,27.80
2024-04-30T12:11:50.464Z,27.80
2024-04-30T12:12:50.470Z,27.79
2024-04-30T12:13:50.543Z,27.79
2024-04-30T12:14:50.590Z,27.79
2024-04-30T12:15:50.594Z,27.79
2024-04-30T12:16:50.774Z,27.79
2024-04-30T12:17:50.895Z,27.79
2024-04-30T12:18:50.707Z,27.79
2024-04-30T12:19:50.775Z,27.79
2024-04-30T12:20:50.790Z,27.79
2024-04-30T12:21:50.843Z,27.79
2024-04-30T12:22:50.884Z,27.79
2024-04-30T12:23:50.960Z,27.79
2024-04-30T12:24:50.955Z,27.79
2024-04-30T12:25:51.067Z,27.79
2024-04-30T12:26:51.069Z,27.79
2024-04-30T12:27:51.078Z,27.79
2024-04-30T12:28:51.214Z,27.79
2024-04-30T12:29:51.156Z,27.80
2024-04-30T12:30:51.211Z,27.80
2024-04-30T12:31:51.304Z,27.80
2024-04-30T12:32:51.383Z,27.80
2024-04-30T12:33:51.373Z,27.80
2024-04-30T12:34:51.410Z,27.79
2024-04-30T12:35:51.439Z,27.80
2024-04-30T12:36:51.460Z,27.79
2024-04-30T12:37:51.520Z,27.81
2024-04-30T12:38:51.569Z,27.80
2024-04-30T12:39:51.619Z,27.80
2024-04-30T12:40:51.663Z,27.80
2024-04-30T12:41:51.768Z,27.81
2024-04-30T12:42:51.693Z,27.81
2024-04-30T12:43:51.699Z,27.81
2024-04-30T12:44:51.748Z,27.81
2024-04-30T12:45:51.823Z,27.80
2024-04-30T12:46:51.846Z,27.81
2024-04-30T12:47:51.935Z,27.81
2024-04-30T12:48:51.890Z,27.81
2024-04-30T12:49:51.922Z,27.81
2024-04-30T12:50:51.904Z,27.81
2024-04-30T12:51:51.999Z,27.82
2024-04-30T12:52:52.042Z,27.81